createdAt,value
2019-03-26T00:02:18.582Z,12.17
2019-03-26T00:04:50.451Z,12.77
2019-03-26T00:07:22.149Z,13.03
2019-03-26T00:09:54.023Z,13.30
2019-03-26T00:12:25.711Z,13.90
2019-03-26T00:14:57.383Z,12.50
2019-03-26T00:17:29.145Z,12.07
2019-03-26T00:20:00.868Z,12.33
2019-03-26T00:22:32.582Z,12.27
2019-03-26T00:25:04.525Z,12.50
2019-03-26T00:27:36.224Z,12.60
2019-03-26T00:30:09.845Z,11.90
2019-03-26T00:32:41.677Z,12.40
2019-03-26T00:35:13.409Z,12.27
2019-03-26T00:37:45.110Z,12.20
2019-03-26T00:40:16.865Z,12.13
2019-03-26T00:42:48.651Z,12.30
2019-03-26T00:45:20.327Z,12.70
2019-03-26T00:47:51.990Z,12.53
2019-03-26T00:50:23.511Z,13.73
2019-03-26T00:52:55.195Z,12.10
2019-03-26T00:55:27.026Z,13.20
2019-03-26T00:58:01.528Z,12.97
2019-03-26T01:00:48.712Z,13.17
2019-03-26T01:03:20.574Z,12.73
2019-03-26T01:05:52.453Z,12.80
2019-03-26T01:08:24.122Z,13.33
2019-03-26T01:10:55.807Z,12.97
2019-03-26T01:13:27.516Z,13.67
2019-03-26T01:15:59.263Z,14.10
2019-03-26T01:18:30.870Z,13.00
2019-03-26T01:21:02.587Z,13.47
2019-03-26T01:23:34.315Z,13.87
2019-03-26T01:26:05.917Z,13.63
2019-03-26T01:28:38.635Z,14.50
2019-03-26T01:31:10.270Z,13.90
2019-03-26T01:33:41.989Z,13.57
2019-03-26T01:36:13.707Z,13.10
2019-03-26T01:38:45.435Z,14.30
2019-03-26T01:41:18.121Z,13.73
2019-03-26T01:43:49.898Z,13.43
2019-03-26T01:46:21.768Z,15.00
2019-03-26T01:48:53.512Z,14.77
2019-03-26T01:51:25.152Z,14.17
2019-03-26T01:53:56.799Z,14.63
2019-03-26T01:56:28.483Z,14.23
2019-03-26T01:59:00.205Z,16.07
2019-03-26T02:01:31.904Z,14.17
2019-03-26T02:04:03.620Z,15.27
2019-03-26T02:06:35.375Z,14.30
2019-03-26T02:09:07.776Z,15.27
2019-03-26T02:11:39.494Z,15.00
2019-03-26T02:14:11.195Z,14.33
2019-03-26T02:16:43.033Z,15.17
2019-03-26T02:19:14.867Z,14.83
2019-03-26T02:21:46.638Z,15.47
2019-03-26T02:24:18.347Z,13.73
2019-03-26T02:26:49.986Z,14.77
2019-03-26T02:29:21.644Z,14.33
2019-03-26T02:31:53.387Z,13.83
2019-03-26T02:34:25.110Z,15.20
2019-03-26T02:36:56.856Z,15.07
2019-03-26T02:39:28.476Z,15.57
2019-03-26T02:42:00.447Z,15.67
2019-03-26T02:44:32.127Z,15.53
2019-03-26T02:47:03.842Z,15.30
2019-03-26T02:49:35.546Z,15.17
2019-03-26T02:52:07.239Z,14.50
2019-03-26T02:54:38.974Z,14.97
2019-03-26T02:57:10.594Z,15.03
2019-03-26T02:59:42.342Z,15.20
2019-03-26T03:02:14.063Z,15.67
2019-03-26T03:04:45.809Z,16.30
2019-03-26T03:07:17.524Z,15.20
2019-03-26T03:09:49.162Z,15.43
2019-03-26T03:12:20.797Z,15.53
2019-03-26T03:14:52.472Z,15.40
2019-03-26T03:17:24.194Z,15.07
2019-03-26T03:23:57.712Z,14.07
2019-03-26T03:26:29.399Z,14.10
2019-03-26T03:29:01.119Z,15.73
2019-03-26T03:31:32.838Z,13.43
2019-03-26T03:34:04.423Z,11.37
2019-03-26T03:36:36.155Z,11.80
2019-03-26T03:39:08.643Z,10.97
2019-03-26T03:41:40.349Z,11.67
2019-03-26T03:44:11.975Z,11.43
2019-03-26T03:46:45.781Z,12.00
2019-03-26T03:49:20.416Z,11.67
2019-03-26T03:51:53.288Z,12.73
2019-03-26T03:54:25.832Z,13.00
2019-03-26T03:56:59.261Z,13.47
2019-03-26T03:59:31.664Z,12.53
2019-03-26T04:02:03.270Z,14.00
2019-03-26T04:04:34.842Z,14.60
2019-03-26T04:07:06.414Z,14.67
2019-03-26T04:09:38.029Z,15.83
2019-03-26T04:12:09.713Z,14.50
2019-03-26T04:14:41.506Z,15.27
2019-03-26T04:17:13.129Z,14.63
2019-03-26T04:19:44.841Z,14.37
2019-03-26T04:22:19.348Z,13.00
2019-03-26T04:24:50.957Z,12.27
2019-03-26T04:27:22.733Z,12.37
2019-03-26T04:29:54.435Z,11.37
2019-03-26T04:32:25.941Z,12.17
2019-03-26T04:34:57.481Z,11.23
2019-03-26T04:37:29.278Z,11.53
2019-03-26T04:40:01.127Z,11.60
2019-03-26T04:42:32.688Z,11.73
2019-03-26T04:45:05.055Z,12.90
2019-03-26T04:47:36.632Z,14.13
2019-03-26T04:50:08.294Z,12.93
2019-03-26T04:52:39.878Z,12.57
2019-03-26T04:55:11.716Z,13.37
2019-03-26T04:57:43.279Z,13.73
2019-03-26T05:00:15.260Z,14.27
2019-03-26T05:02:46.892Z,13.63
2019-03-26T05:05:18.505Z,13.13
2019-03-26T05:07:50.065Z,14.40
2019-03-26T05:10:21.697Z,14.77
2019-03-26T05:12:53.347Z,12.63
2019-03-26T05:15:24.989Z,14.77
2019-03-26T05:17:56.986Z,13.43
2019-03-26T05:20:28.680Z,14.70
2019-03-26T05:23:00.303Z,13.87
2019-03-26T05:25:31.929Z,13.60
2019-03-26T05:28:03.599Z,14.40
2019-03-26T05:30:35.230Z,12.63
2019-03-26T05:33:06.862Z,13.97
2019-03-26T05:35:38.495Z,13.50
2019-03-26T05:38:10.083Z,13.97
2019-03-26T05:40:41.725Z,13.57
2019-03-26T05:43:13.337Z,13.00
2019-03-26T05:45:45.068Z,13.40
2019-03-26T05:48:16.649Z,12.97
2019-03-26T05:50:48.261Z,13.00
2019-03-26T05:53:19.922Z,13.53
2019-03-26T05:55:51.555Z,14.63
2019-03-26T05:58:23.225Z,12.73
2019-03-26T06:00:54.816Z,14.80
2019-03-26T06:03:26.494Z,13.77
2019-03-26T06:05:58.081Z,14.47
2019-03-26T06:08:29.788Z,13.17
2019-03-26T06:11:01.373Z,12.93
2019-03-26T06:13:32.958Z,13.47
2019-03-26T06:16:04.589Z,11.73
2019-03-26T06:18:36.223Z,10.83
2019-03-26T06:21:07.815Z,10.77
2019-03-26T06:23:39.446Z,11.40
2019-03-26T06:26:11.115Z,12.17
2019-03-26T06:28:42.719Z,10.93
2019-03-26T06:31:14.327Z,10.33
2019-03-26T06:33:45.891Z,10.10
2019-03-26T06:36:17.613Z,9.77
2019-03-26T06:38:50.380Z,9.43
2019-03-26T06:41:22.180Z,9.37
2019-03-26T06:43:55.247Z,9.80
2019-03-26T06:46:29.673Z,11.67
2019-03-26T06:49:01.360Z,11.53
2019-03-26T06:51:48.089Z,11.53
2019-03-26T06:54:25.894Z,11.37
2019-03-26T06:57:03.600Z,12.70
2019-03-26T06:59:41.164Z,12.30
2019-03-26T07:02:14.230Z,12.13
2019-03-26T07:04:47.365Z,12.83
2019-03-26T07:07:30.796Z,12.10
2019-03-26T07:09:55.099Z,13.73
2019-03-26T07:12:28.353Z,13.03
2019-03-26T07:15:10.228Z,12.87
2019-03-26T07:17:41.927Z,13.60
2019-03-26T07:20:23.510Z,14.30
2019-03-26T07:22:57.585Z,13.63
2019-03-26T07:25:30.141Z,11.47
2019-03-26T07:28:02.909Z,12.57
2019-03-26T07:30:54.744Z,12.57
2019-03-26T07:33:31.038Z,12.20
2019-03-26T07:36:17.724Z,11.33
2019-03-26T07:38:54.851Z,11.43
2019-03-26T07:41:30.953Z,10.37
2019-03-26T07:44:06.963Z,11.27
2019-03-26T07:46:41.070Z,11.43
2019-03-26T07:49:20.304Z,11.90
2019-03-26T07:51:58.338Z,10.80
2019-03-26T07:54:32.510Z,10.80
2019-03-26T07:57:05.181Z,11.03
2019-03-26T07:59:36.816Z,10.80
2019-03-26T08:02:08.384Z,10.87
2019-03-26T08:04:41.552Z,11.30
2019-03-26T08:07:13.019Z,10.67
2019-03-26T08:09:44.616Z,10.87
2019-03-26T08:12:19.077Z,10.27
2019-03-26T08:14:52.954Z,11.10
2019-03-26T08:17:24.543Z,11.60
2019-03-26T08:19:57.179Z,12.07
2019-03-26T08:22:29.978Z,12.53
2019-03-26T08:25:01.610Z,11.87
2019-03-26T08:27:35.338Z,12.13
2019-03-26T08:30:07.670Z,12.60
2019-03-26T08:32:39.603Z,11.20
2019-03-26T08:35:11.365Z,12.30
2019-03-26T08:37:43.027Z,11.97
2019-03-26T08:40:14.744Z,11.27
2019-03-26T08:42:46.307Z,11.73
2019-03-26T08:45:18.029Z,10.80
2019-03-26T08:47:49.786Z,10.23
2019-03-26T08:50:21.523Z,9.10
2019-03-26T08:52:53.264Z,10.73
2019-03-26T08:55:25.983Z,9.53
2019-03-26T08:57:57.641Z,9.10
2019-03-26T09:00:31.946Z,9.37
2019-03-26T09:03:02.615Z,9.93
2019-03-26T09:05:34.249Z,10.97
2019-03-26T09:08:06.497Z,11.07
2019-03-26T09:10:50.963Z,10.27
2019-03-26T09:13:11.551Z,10.77
2019-03-26T09:15:43.177Z,10.70
2019-03-26T09:18:14.852Z,11.47
2019-03-26T09:20:46.482Z,10.47
2019-03-26T09:23:18.158Z,8.73
2019-03-26T09:25:49.797Z,9.73
2019-03-26T09:28:21.478Z,9.37
2019-03-26T09:30:53.092Z,9.80
2019-03-26T09:33:24.704Z,9.53
2019-03-26T09:35:56.262Z,9.67
2019-03-26T09:38:38.381Z,9.73
2019-03-26T09:41:01.620Z,9.80
2019-03-26T09:43:33.777Z,9.47
2019-03-26T09:46:05.507Z,8.37
2019-03-26T09:48:37.186Z,8.50
2019-03-26T09:51:10.796Z,8.43
2019-03-26T09:53:41.877Z,8.50
2019-03-26T09:56:13.600Z,8.30
2019-03-26T09:58:45.212Z,8.27
2019-03-26T10:01:17.161Z,7.80
2019-03-26T10:03:49.180Z,7.53
2019-03-26T10:06:23.639Z,7.93
2019-03-26T10:08:54.436Z,7.17
2019-03-26T10:11:26.091Z,8.13
2019-03-26T10:13:57.665Z,7.87
2019-03-26T10:16:29.673Z,6.97
2019-03-26T10:19:01.472Z,6.10
2019-03-26T10:21:33.071Z,7.73
2019-03-26T10:24:04.798Z,6.87
2019-03-26T10:26:36.413Z,6.30
2019-03-26T10:29:19.043Z,8.40
2019-03-26T10:31:41.550Z,7.67
2019-03-26T10:34:13.147Z,5.60
2019-03-26T10:36:45.262Z,5.57
2019-03-26T10:39:16.860Z,6.87
2019-03-26T10:41:48.431Z,6.50
2019-03-26T10:44:20.016Z,6.67
2019-03-26T10:46:51.608Z,6.60
2019-03-26T10:49:23.301Z,6.97
2019-03-26T10:51:54.885Z,7.03
2019-03-26T10:54:26.505Z,7.10
2019-03-26T10:56:58.106Z,6.57
2019-03-26T10:59:32.724Z,6.67
2019-03-26T11:02:04.665Z,7.20
2019-03-26T11:04:36.241Z,7.07
2019-03-26T11:07:07.882Z,7.93
2019-03-26T11:09:39.494Z,7.97
2019-03-26T11:12:11.064Z,8.67
2019-03-26T11:14:42.660Z,8.40
2019-03-26T11:17:14.311Z,7.80
2019-03-26T11:19:46.578Z,9.20
2019-03-26T11:22:19.465Z,8.33
2019-03-26T11:24:51.247Z,7.40
2019-03-26T11:27:22.946Z,6.70
2019-03-26T11:29:54.948Z,5.53
2019-03-26T11:32:26.881Z,5.73
2019-03-26T11:34:58.923Z,6.80
2019-03-26T11:37:30.722Z,6.40
2019-03-26T11:40:02.438Z,5.97
2019-03-26T11:42:34.146Z,6.10
2019-03-26T11:45:07.493Z,5.80
2019-03-26T11:47:39.718Z,5.33
2019-03-26T11:50:12.216Z,4.40
2019-03-26T11:52:43.830Z,4.50
2019-03-26T11:55:15.560Z,3.93
2019-03-26T11:57:47.235Z,4.10
2019-03-26T12:00:23.371Z,3.43
2019-03-26T12:02:54.951Z,3.20
2019-03-26T12:05:26.583Z,3.40
2019-03-26T12:07:58.262Z,3.40
2019-03-26T12:10:29.841Z,3.00
2019-03-26T12:13:01.412Z,3.23
2019-03-26T12:15:33.052Z,4.17
2019-03-26T12:18:04.850Z,4.50
2019-03-26T12:20:36.463Z,4.70
2019-03-26T12:23:08.194Z,4.27
2019-03-26T12:25:39.939Z,4.87
2019-03-26T12:28:11.596Z,4.10
2019-03-26T12:30:43.310Z,4.40
2019-03-26T12:33:15.395Z,4.20
2019-03-26T12:35:47.354Z,4.30
2019-03-26T12:38:22.502Z,5.13
2019-03-26T12:40:54.438Z,5.50
2019-03-26T12:43:26.051Z,4.90
2019-03-26T12:45:57.850Z,4.47
2019-03-26T12:48:29.594Z,4.73
2019-03-26T12:51:01.345Z,4.83
2019-03-26T12:53:33.364Z,5.53
2019-03-26T12:56:05.268Z,5.10
2019-03-26T12:58:38.385Z,5.70
2019-03-26T13:01:10.624Z,6.00
2019-03-26T13:03:42.481Z,5.70
2019-03-26T13:06:14.338Z,5.23
2019-03-26T13:08:45.942Z,4.73
2019-03-26T13:11:17.722Z,5.33
2019-03-26T13:13:49.432Z,4.73
2019-03-26T13:16:21.113Z,4.07
2019-03-26T13:18:52.824Z,4.27
2019-03-26T13:21:24.565Z,3.87
2019-03-26T13:23:57.366Z,4.57
2019-03-26T13:26:30.387Z,4.20
2019-03-26T13:29:02.122Z,3.50
2019-03-26T13:31:33.823Z,4.77
2019-03-26T13:34:05.557Z,4.23
2019-03-26T13:36:37.444Z,4.60
2019-03-26T13:39:10.417Z,4.30
2019-03-26T13:41:42.473Z,4.30
2019-03-26T13:44:14.102Z,4.83
2019-03-26T13:46:45.941Z,4.80
2019-03-26T13:49:17.661Z,4.40
2019-03-26T13:51:49.425Z,5.27
2019-03-26T13:54:21.186Z,4.50
2019-03-26T13:56:53.180Z,4.30
2019-03-26T13:59:24.987Z,3.87
2019-03-26T14:01:56.664Z,4.07
2019-03-26T14:04:28.508Z,4.13
2019-03-26T14:07:00.238Z,4.17
2019-03-26T14:09:31.846Z,3.90
2019-03-26T14:12:03.574Z,4.13
2019-03-26T14:14:35.552Z,4.40
2019-03-26T14:17:07.393Z,4.87
2019-03-26T14:19:39.353Z,4.60
2019-03-26T14:22:12.183Z,4.60
2019-03-26T14:24:43.766Z,5.27
2019-03-26T14:27:15.377Z,4.40
2019-03-26T14:29:46.985Z,4.03
2019-03-26T14:32:18.552Z,4.13
2019-03-26T14:34:51.895Z,3.93
2019-03-26T14:37:23.964Z,3.97
2019-03-26T14:39:55.947Z,3.80
2019-03-26T14:42:28.816Z,3.60
2019-03-26T14:45:00.838Z,4.07
2019-03-26T14:47:32.782Z,4.37
2019-03-26T14:50:07.252Z,4.50
2019-03-26T14:52:39.588Z,4.57
2019-03-26T14:55:11.793Z,5.53
2019-03-26T14:57:43.592Z,5.27
2019-03-26T15:00:15.405Z,5.03
2019-03-26T15:02:47.478Z,5.00
2019-03-26T15:05:19.756Z,4.43
2019-03-26T15:07:51.683Z,5.27
2019-03-26T15:10:24.486Z,4.50
2019-03-26T15:12:56.352Z,3.90
2019-03-26T15:15:28.115Z,4.30
2019-03-26T15:17:59.924Z,3.90
2019-03-26T15:20:31.618Z,4.33
2019-03-26T15:23:03.611Z,3.50
2019-03-26T15:25:35.279Z,3.80
2019-03-26T15:28:06.944Z,4.00
2019-03-26T15:30:38.656Z,3.80
2019-03-26T15:33:10.342Z,3.93
2019-03-26T15:35:42.015Z,3.40
2019-03-26T15:38:13.690Z,3.80
2019-03-26T15:40:45.378Z,3.70
2019-03-26T15:43:17.033Z,3.80
2019-03-26T15:45:48.666Z,2.80
2019-03-26T15:48:20.425Z,3.23
2019-03-26T15:50:52.105Z,2.93
2019-03-26T15:53:23.813Z,3.20
2019-03-26T15:55:55.573Z,3.27
2019-03-26T15:58:27.465Z,3.67
2019-03-26T16:00:59.033Z,3.20
2019-03-26T16:03:30.729Z,3.20
2019-03-26T16:06:02.459Z,3.37
2019-03-26T16:08:36.006Z,3.67
2019-03-26T16:11:07.733Z,4.00
2019-03-26T16:13:39.478Z,3.80
2019-03-26T16:16:11.200Z,3.93
2019-03-26T16:18:43.022Z,3.73
2019-03-26T16:21:14.712Z,4.30
2019-03-26T16:23:46.456Z,4.50
2019-03-26T16:26:20.610Z,4.00
2019-03-26T16:28:51.654Z,3.93
2019-03-26T16:31:23.278Z,3.67
2019-03-26T16:33:54.936Z,4.43
2019-03-26T16:36:29.318Z,4.33
2019-03-26T16:39:01.083Z,4.80
2019-03-26T16:41:34.466Z,4.00
2019-03-26T16:44:06.206Z,4.10
2019-03-26T16:46:37.888Z,3.87
2019-03-26T16:49:09.698Z,4.10
2019-03-26T16:51:41.378Z,4.03
2019-03-26T16:54:13.179Z,5.00
2019-03-26T16:56:44.936Z,4.93
2019-03-26T16:59:16.659Z,6.37
2019-03-26T17:01:48.597Z,5.43
2019-03-26T17:04:20.269Z,5.53
2019-03-26T17:06:52.365Z,5.43
2019-03-26T17:09:24.170Z,6.10
2019-03-26T17:12:03.103Z,6.10
2019-03-26T17:14:29.534Z,5.50
2019-03-26T17:17:01.440Z,6.07
2019-03-26T17:19:33.709Z,4.93
2019-03-26T17:22:05.626Z,4.40
2019-03-26T17:24:38.662Z,5.70
2019-03-26T17:27:10.490Z,7.67
2019-03-26T17:29:42.353Z,5.93
2019-03-26T17:32:14.461Z,4.90
2019-03-26T17:34:46.404Z,4.03
2019-03-26T17:37:18.092Z,15.70
2019-03-26T17:39:49.920Z,11.27
2019-03-26T17:42:21.687Z,7.87
2019-03-26T17:44:53.506Z,6.73
2019-03-26T17:47:25.288Z,5.00
2019-03-26T17:49:58.220Z,7.80
2019-03-26T17:52:30.021Z,5.07
2019-03-26T17:55:01.828Z,9.80
2019-03-26T17:57:33.603Z,5.33
2019-03-26T18:00:06.661Z,4.37
2019-03-26T18:02:39.393Z,4.60
2019-03-26T18:05:32.918Z,3.60
2019-03-26T18:08:04.572Z,3.07
2019-03-26T18:10:36.274Z,3.40
2019-03-26T18:13:08.029Z,3.57
2019-03-26T18:15:39.811Z,4.33
2019-03-26T18:18:11.582Z,5.10
2019-03-26T18:20:43.380Z,4.63
2019-03-26T18:23:15.121Z,4.90
2019-03-26T18:25:46.836Z,4.13
2019-03-26T18:28:18.722Z,3.90
2019-03-26T18:30:50.505Z,4.27
2019-03-26T18:33:22.322Z,4.03
2019-03-26T18:35:54.057Z,4.10
2019-03-26T18:38:25.788Z,4.23
2019-03-26T18:40:57.553Z,4.83
2019-03-26T18:43:29.293Z,4.87
2019-03-26T18:46:01.073Z,6.07
2019-03-26T18:48:32.810Z,5.83
2019-03-26T18:51:04.936Z,6.60
2019-03-26T18:53:36.676Z,5.93
2019-03-26T18:56:08.526Z,5.93
2019-03-26T18:58:40.278Z,6.87
2019-03-26T19:01:12.220Z,6.43
2019-03-26T19:03:44.152Z,7.43
2019-03-26T19:06:15.901Z,12.90
2019-03-26T19:08:47.693Z,14.07
2019-03-26T19:11:19.627Z,18.57
2019-03-26T19:13:51.356Z,18.10
2019-03-26T19:16:23.223Z,12.63
2019-03-26T19:18:55.648Z,8.97
2019-03-26T19:21:27.548Z,7.73
2019-03-26T19:24:04.602Z,8.30
2019-03-26T19:26:32.723Z,8.37
2019-03-26T19:29:04.807Z,7.43
2019-03-26T19:31:36.554Z,9.27
2019-03-26T19:34:08.422Z,7.23
2019-03-26T19:36:40.281Z,7.00
2019-03-26T19:39:12.350Z,7.03
2019-03-26T19:41:44.205Z,10.10
2019-03-26T19:44:15.951Z,9.80
2019-03-26T19:46:47.802Z,11.93
2019-03-26T19:49:19.555Z,23.50
2019-03-26T19:51:51.320Z,25.03
2019-03-26T19:54:23.170Z,16.33
2019-03-26T19:56:54.933Z,28.80
2019-03-26T19:59:26.767Z,15.43
2019-03-26T20:01:58.734Z,25.60
2019-03-26T20:04:30.495Z,26.43
2019-03-26T20:07:02.443Z,21.80
2019-03-26T20:09:35.219Z,14.17
2019-03-26T20:12:07.006Z,8.67
2019-03-26T20:14:38.879Z,9.83
2019-03-26T20:17:10.642Z,12.13
2019-03-26T20:19:42.443Z,9.70
2019-03-26T20:22:17.666Z,8.70
2019-03-26T20:25:00.535Z,9.17
2019-03-26T20:27:38.624Z,8.27
2019-03-26T20:30:12.225Z,6.93
2019-03-26T20:32:44.177Z,7.83
2019-03-26T20:35:16.105Z,8.80
2019-03-26T20:37:48.095Z,9.97
2019-03-26T20:40:19.909Z,9.17
2019-03-26T20:42:51.665Z,9.80
2019-03-26T20:45:23.405Z,11.20
2019-03-26T20:47:55.341Z,9.57
2019-03-26T20:50:27.545Z,9.80
2019-03-26T20:53:00.524Z,9.50
2019-03-26T20:55:33.796Z,10.10
2019-03-26T20:58:06.305Z,8.97
2019-03-26T21:00:42.776Z,9.17
2019-03-26T21:03:15.015Z,9.07
2019-03-26T21:05:48.085Z,9.97
2019-03-26T21:08:19.875Z,11.03
2019-03-26T21:10:51.854Z,10.40
2019-03-26T21:13:23.649Z,10.57
2019-03-26T21:15:57.408Z,10.20
2019-03-26T21:18:29.159Z,10.33
2019-03-26T21:21:00.937Z,10.93
2019-03-26T21:23:32.761Z,10.20
2019-03-26T21:26:04.872Z,9.47
2019-03-26T21:28:36.966Z,9.03
2019-03-26T21:31:08.744Z,9.60
2019-03-26T21:33:40.681Z,9.43
2019-03-26T21:36:12.494Z,11.23
2019-03-26T21:38:44.280Z,10.67
2019-03-26T21:41:16.089Z,8.87
2019-03-26T21:43:47.864Z,10.57
2019-03-26T21:46:19.610Z,10.40
2019-03-26T21:48:51.477Z,9.83
2019-03-26T21:51:23.189Z,17.37
2019-03-26T21:53:55.015Z,12.03
2019-03-26T21:56:26.982Z,16.70
2019-03-26T21:58:58.780Z,15.10
2019-03-26T22:01:30.453Z,11.10
2019-03-26T22:04:02.228Z,8.37
2019-03-26T22:06:33.946Z,8.10
2019-03-26T22:09:07.527Z,7.70
2019-03-26T22:11:49.711Z,7.20
2019-03-26T22:14:18.407Z,7.87
2019-03-26T22:16:47.678Z,7.47
2019-03-26T22:19:28.529Z,7.53
2019-03-26T22:21:52.851Z,7.60
2019-03-26T22:24:24.529Z,7.63
2019-03-26T22:26:56.334Z,7.93
2019-03-26T22:29:28.072Z,7.60
2019-03-26T22:31:59.840Z,7.63
2019-03-26T22:34:31.453Z,8.07
2019-03-26T22:37:03.223Z,7.70
2019-03-26T22:39:35.007Z,7.20
2019-03-26T22:42:06.886Z,9.27
2019-03-26T22:44:38.746Z,9.20
2019-03-26T22:47:10.893Z,8.63
2019-03-26T22:49:42.654Z,8.53
2019-03-26T22:52:14.366Z,8.57
2019-03-26T22:54:46.026Z,9.63
2019-03-26T22:57:17.713Z,10.13
2019-03-26T22:59:49.403Z,9.73
2019-03-26T23:02:21.215Z,8.90
2019-03-26T23:04:52.875Z,17.10
2019-03-26T23:07:25.072Z,14.13
2019-03-26T23:09:56.731Z,12.47
2019-03-26T23:12:28.587Z,10.73
2019-03-26T23:15:00.417Z,10.03
2019-03-26T23:17:32.283Z,8.83
2019-03-26T23:20:03.996Z,6.50
2019-03-26T23:22:35.688Z,5.87
2019-03-26T23:25:07.550Z,5.73
2019-03-26T23:27:39.171Z,6.03
2019-03-26T23:30:11.278Z,4.50
2019-03-26T23:32:44.194Z,4.60
2019-03-26T23:35:16.031Z,5.10
2019-03-26T23:37:47.818Z,5.57
2019-03-26T23:40:19.476Z,5.23
2019-03-26T23:42:51.154Z,4.63
2019-03-26T23:45:22.760Z,4.57
2019-03-26T23:47:54.364Z,4.87
2019-03-26T23:50:26.018Z,3.77
2019-03-26T23:52:57.720Z,4.27
2019-03-26T23:55:29.380Z,4.30
2019-03-26T23:58:01.066Z,4.30
